• Join FlightAware (Why Join?)
  • Login
  • US Flag 
08:33PM EDT


 

Airport Tracker/Info


-or-


 

Live Flight TrackerFlight Track Log ✈ AAL1305 ✈ 15-Nov-2013 ✈ KORD - KLAX

Flight Track Log - Related Links

Times and Time Zones

All times are in EST time to prevent confusion due to time zone crossing. See the AAL1305 flight status page for this flight to view local times or setup timezone preferences in your user account.

Time Position Orientation Groundspeed Altitude Reporting Facility
EST Latitude Longitude Course Direction KTS MPH feet Rate Location/Type
03:44PM 41.9690 -87.9470 270° West 176 203 1,600  Level FlightAware
03:45PM 41.9700 -87.9860 272° West 208 239 2,400 1,800 Climbing FlightAware
03:45PM 41.9710 -88.0390 271° West 241 277 3,700 2,340 Climbing FlightAware
03:46PM 41.9710 -88.0750 270° West 246 283 4,800 2,460 Climbing FlightAware
03:46PM 41.9770 -88.1390 277° West 264 304 6,500 2,700 Climbing FlightAware
03:47PM 41.9820 -88.1880 278° West 261 300 8,100 2,880 Climbing FlightAware
03:47PM 41.9860 -88.2300 277° West 267 307 9,200 2,580 Climbing FlightAware
03:48PM 41.9930 -88.2960 278° West 276 318 10,900 2,580 Climbing FlightAware
03:49PM 42.0000 -88.3590 279° West 282 325 12,500 2,040 Climbing FlightAware
03:50PM 42.0120 -88.4780 278° West 331 381 14,400 1,800 Climbing FlightAware
03:50PM 42.0180 -88.5320 279° West 344 396 15,200 2,100 Climbing FlightAware
03:51PM 42.0250 -88.5970 278° West 356 410 16,400 2,460 Climbing FlightAware
03:51PM 42.0320 -88.6690 277° West 362 417 17,800 2,520 Climbing FlightAware
03:52PM 42.0450 -88.8000 278° West 369 425 20,200 2,220 Climbing FlightAware
03:53PM 42.0380 -88.9520 267° West 384 442 22,500 1,920 Climbing FlightAware
03:54PM 42.0290 -89.1020 265° West 396 456 24,300 1,380 Climbing FlightAware
03:55PM 42.0230 -89.2080 266° West 419 482 24,900 1,200 Climbing FlightAware
03:56PM 42.0170 -89.3050 265° West 422 486 25,900 660 Climbing FlightAware
03:57PM 42.0070 -89.4650 265° West 426 490 26,000  Climbing FlightAware
03:58PM 41.9950 -89.6520 265° West 440 506 26,000  Level FlightAware
03:58PM 41.9890 -89.7390 265° West 439 505 26,000  Level FlightAware
03:59PM 41.9830 -89.8350 265° West 438 504 26,000  Level FlightAware
03:59PM 41.9760 -89.9420 265° West 438 504 26,000  Level FlightAware
04:00PM 41.9700 -90.0340 265° West 438 504 26,000  Level FlightAware
04:01PM 41.9640 -90.1190 265° West 438 504 26,000  Level FlightAware
04:01PM 41.9570 -90.2240 265° West 437 503 26,000  Level FlightAware
04:02PM 41.9460 -90.3780 265° West 437 503 26,000  Level FlightAware
04:03PM 41.9360 -90.5210 265° West 438 504 26,000  Level FlightAware
04:04PM 41.9280 -90.6210 264° West 437 503 26,000  Level FlightAware
04:04PM 41.9170 -90.7280 262° West 437 503 26,000  Level FlightAware
04:05PM 41.9010 -90.8400 259° West 437 503 26,000  Level FlightAware
04:06PM 41.8880 -90.9290 259° West 437 503 26,000  Level FlightAware
04:06PM 41.8780 -90.9980 259° West 437 503 26,000  Level FlightAware
04:07PM 41.8510 -91.1770 259° West 437 503 26,000  Level FlightAware
04:08PM 41.8400 -91.2490 258° West 437 503 26,000  Level FlightAware
04:08PM 41.8250 -91.3530 259° West 436 502 26,000  Level FlightAware
04:09PM 41.8121 -91.4364 258° West 435 501 26,000  Level FlightAware ADS-B
04:09PM 41.7983 -91.5272 258° West 435 501 26,000  Level FlightAware ADS-B
04:10PM 41.7830 -91.6270 258° West 435 501 26,000  Level FlightAware ADS-B
04:10PM 41.7716 -91.7013 258° West 436 502 26,000  Level FlightAware ADS-B
04:11PM 41.7579 -91.7900 258° West 436 502 26,000  Level FlightAware ADS-B
04:12PM 41.7422 -91.8905 258° West 438 504 26,000  Level FlightAware ADS-B
04:12PM 41.7280 -91.9811 258° West 440 506 26,000  Level FlightAware ADS-B
04:13PM 41.7117 -92.0851 258° West 442 509 26,000  Level FlightAware ADS-B
04:14PM 41.6895 -92.2236 258° West 442 509 26,000  Level FlightAware ADS-B
04:15PM 41.6693 -92.3503 258° West 439 505 26,000  Level FlightAware ADS-B
04:15PM 41.6533 -92.4505 258° West 440 506 26,000  Level FlightAware ADS-B
04:16PM 41.6397 -92.5353 258° West 440 506 26,000  Level FlightAware ADS-B
04:16PM 41.6281 -92.6069 258° West 440 506 26,000  Level FlightAware ADS-B
04:17PM 41.6108 -92.7123 258° West 441 507 26,000  Level FlightAware ADS-B
04:18PM 41.5887 -92.8479 258° West 442 509 26,000  Level FlightAware ADS-B
04:18PM 41.5922 -92.8258 78° East 443 510 26,000  Level FlightAware ADS-B
04:19PM 41.5420 -93.1300 258° West 442 509 26,000  Level FlightAware
04:20PM 41.5300 -93.1980 257° West 443 510 26,000  Level FlightAware
04:21PM 41.5030 -93.3580 257° West 442 509 26,000  Level FlightAware
04:22PM 41.4770 -93.5110 257° West 442 509 26,000  Level FlightAware
04:22PM 41.4620 -93.5990 257° West 442 509 26,000  Level FlightAware
04:23PM 41.4500 -93.6700 257° West 441 507 26,000  Level FlightAware
04:23PM 41.4310 -93.7790 257° West 434 499 26,000  Level FlightAware
04:24PM 41.4160 -93.8650 257° West 422 486 26,000  Level FlightAware
04:25PM 41.4020 -93.9420 256° West 422 486 26,000  Level FlightAware
04:25PM 41.3860 -94.0340 257° West 421 484 26,000  Level FlightAware
04:26PM 41.3560 -94.2010 257° West 429 494 26,000  Level FlightAware
04:27PM 41.3430 -94.2730 256° West 429 494 26,000  Level FlightAware
04:28PM 41.3190 -94.4110 257° West 428 493 26,000  Level FlightAware
04:29PM 41.2920 -94.5590 256° West 428 493 26,000  Level FlightAware
04:29PM 41.2730 -94.6660 257° West 428 493 26,000  Level FlightAware
04:30PM 41.2460 -94.8080 256° West 428 493 26,000  Level FlightAware
04:31PM 41.2310 -94.8920 257° West 428 493 26,000  Level FlightAware
04:31PM 41.2163 -94.9720 256° West 428 493 26,000  Level FlightAware ADS-B
04:32PM 41.1900 -95.1120 256° West 429 494 26,000  Level FlightAware
04:33PM 41.1708 -95.2152 256° West 430 495 26,000  Level FlightAware ADS-B
04:34PM 41.1260 -95.4522 256° West 428 493 26,000  Level FlightAware ADS-B
04:35PM 41.0990 -95.5910 256° West 427 491 26,000  Level FlightAware
04:36PM 41.1140 -95.5157 75° East 428 493 26,000  Level FlightAware ADS-B
04:37PM 41.0600 -95.7940 256° West 425 489 26,000  Level FlightAware
04:37PM 41.0450 -95.8740 256° West 424 488 26,000  Level FlightAware
04:38PM 41.0170 -96.0170 255° West 424 488 26,000  Level FlightAware
04:39PM 40.9940 -96.1350 256° West 424 488 26,000  Level FlightAware
04:40PM 40.9790 -96.2120 256° West 425 489 26,000  Level FlightAware
04:41PM 40.9480 -96.3680 255° West 426 490 26,000  Level FlightAware
04:41PM 40.9230 -96.4910 255° West 426 490 26,000  Level FlightAware
04:42PM 40.8940 -96.6370 255° West 423 487 26,000  Level FlightAware
04:43PM 40.8660 -96.7750 255° West 420 483 26,000  Level FlightAware
04:44PM 40.8501 -96.8527 255° West 418 481 26,000  Level FlightAware ADS-B
04:44PM 40.8274 -96.9633 255° West 416 479 26,000  Level FlightAware ADS-B
04:45PM 40.8241 -96.9789 254° West 416 479 26,000  Level FlightAware ADS-B
04:47PM 40.7590 -97.2970 255° West 407 468 26,000  Level FlightAware
04:47PM 40.7420 -97.3760 254° West 407 468 26,000  Level FlightAware
04:48PM 40.7115 -97.5217 255° West 409 471 26,000  Level FlightAware ADS-B
04:49PM 40.6900 -97.6220 254° West 408 470 26,000  Level FlightAware
04:50PM 40.6550 -97.7880 255° West 408 470 26,000  Level FlightAware
04:51PM 40.6300 -97.9050 254° West 409 471 26,000  Level FlightAware
04:52PM 40.6040 -98.0240 254° West 409 471 26,000  Level FlightAware
04:53PM 40.5770 -98.1500 254° West 411 473 26,000  Level FlightAware
04:53PM 40.5590 -98.2320 254° West 411 473 26,000  Level FlightAware
04:54PM 40.5320 -98.3560 254° West 411 473 26,000  Level FlightAware
04:55PM 40.5130 -98.4450 254° West 414 476 26,000  Level FlightAware
04:56PM 40.4800 -98.5950 254° West 414 476 26,000  Level FlightAware
04:57PM 40.4580 -98.6960 254° West 414 476 26,000  Level FlightAware
04:58PM 40.4360 -98.7940 254° West 414 476 26,000  Level FlightAware
04:58PM 40.4200 -98.8710 255° West 414 476 26,000  Level FlightAware
04:59PM 40.3867 -99.0111 255° West 413 475 26,000  Level Denver Center
05:00PM 40.3533 -99.1547 253° West 413 475 26,000  Level Denver Center
05:01PM 40.3208 -99.3000 254° West 414 476 26,000  Level Denver Center
05:02PM 40.2867 -99.4450 253° West 414 476 26,000  Level Denver Center
05:03PM 40.2544 -99.5903 254° West 415 478 26,000  Level Denver Center
05:04PM 40.2206 -99.7347 253° West 414 476 26,000  Level Denver Center
05:05PM 40.1861 -99.8794 253° West 416 479 26,000  Level Denver Center
05:06PM 40.1467 -100.0503 253° West 414 476 26,000  Level Denver Center
05:07PM 40.1194 -100.1647 253° West 414 476 26,000  Level Denver Center
05:08PM 40.0756 -100.3478 253° West 412 474 26,000  Level Denver Center
05:09PM 40.0428 -100.4864 253° West 415 478 26,000  Level Denver Center
05:10PM 40.0097 -100.6236 253° West 414 476 26,000  Level Denver Center
05:11PM 39.9703 -100.7836 252° West 414 476 26,000  Level Denver Center
05:12PM 39.9364 -100.9211 252° West 416 479 26,000  Level Denver Center
05:13PM 39.9033 -101.0578 253° West 414 476 26,000  Level Denver Center
05:19PM 39.7040 -101.8550 253° West 26,000  Level FlightAware
05:20PM 39.6710 -101.9850 252° West 418 481 26,000  Level FlightAware
05:20PM 39.6390 -102.1100 252° West 420 483 26,000  Level FlightAware
05:21PM 39.6130 -102.2100 251° West 418 481 26,000  Level FlightAware
05:22PM 39.5770 -102.3500 252° West 416 479 26,000  Level FlightAware
05:23PM 39.5500 -102.4510 251° West 416 479 26,000  Level FlightAware
05:23PM 39.5260 -102.5430 251° West 415 478 26,000  Level FlightAware
05:24PM 39.4940 -102.6640 251° West 417 480 26,000  Level FlightAware
05:25PM 39.4570 -102.8070 252° West 416 479 26,000  Level FlightAware
05:26PM 39.4310 -102.9030 251° West 419 482 26,000  Level FlightAware
05:27PM 39.4030 -103.0070 251° West 418 481 26,000  Level FlightAware
05:27PM 39.3750 -103.1140 251° West 417 480 26,000  Level FlightAware
05:28PM 39.3650 -103.1520 251° West 416 479 26,000  Level FlightAware
05:29PM 39.3280 -103.2870 251° West 415 478 26,000  Level FlightAware
05:30PM 39.2960 -103.4050 251° West 416 479 26,000  Level FlightAware
05:30PM 39.2840 -103.4510 251° West 415 478 26,000  Level FlightAware
05:31PM 39.2450 -103.5930 251° West 415 478 26,000  Level FlightAware
05:31PM 39.2330 -103.6400 252° West 406 467 26,000  Level FlightAware
05:32PM 39.1910 -103.7910 250° West 401 461 26,000  Level FlightAware
05:33PM 39.1610 -103.9010 251° West 421 484 26,000  Level FlightAware
05:34PM 39.1250 -104.0300 250° West 423 487 26,000  Level FlightAware
05:34PM 39.1110 -104.0790 250° West 424 488 26,000  Level FlightAware
05:35PM 39.0700 -104.2270 250° West 424 488 26,000  Level FlightAware
05:36PM 39.0480 -104.3050 250° West 417 480 26,000  Level FlightAware
05:37PM 39.1711 -103.8640 70° East 417 480 26,000  Level FlightAware ADS-B (KBJC)
05:37PM 38.9930 -104.4990 250° West 413 475 26,000  Level FlightAware
05:38PM 38.9540 -104.6380 250° West 412 474 26,000  Level FlightAware
05:39PM 38.9200 -104.7580 250° West 414 476 26,000  Level FlightAware
05:40PM 38.9070 -104.8040 250° West 416 479 26,000  Level FlightAware
05:40PM 38.8840 -104.8820 249° West 417 480 26,000  Level FlightAware
05:41PM 38.8480 -105.0070 250° West 403 464 26,000  Level FlightAware
05:42PM 38.8160 -105.1190 250° West 388 447 26,000  Level FlightAware
05:42PM 38.7980 -105.1800 249° West 388 447 26,000  Level FlightAware
05:43PM 38.7780 -105.2490 250° West 393 452 26,000  Level FlightAware
05:44PM 38.7430 -105.3700 250° West 393 452 26,000  Level FlightAware
05:44PM 38.7220 -105.4420 250° West 394 453 26,000  Level FlightAware
05:45PM 38.6870 -105.5620 250° West 394 453 26,000  Level FlightAware
05:46PM 38.6720 -105.6120 249° West 394 453 26,000  Level FlightAware
05:46PM 38.6503 -105.6854 249° West 393 452 26,000  Level FlightAware ADS-B (KANK)
05:47PM 38.6016 -105.8494 249° West 392 451 26,000  Level FlightAware ADS-B (KANK)
05:48PM 38.5782 -105.9276 249° West 387 445 26,000  Level FlightAware ADS-B (KANK)
05:49PM 38.5577 -105.9965 249° West 388 447 26,000  Level FlightAware ADS-B (KANK)
05:50PM 38.5170 -106.1323 249° West 399 459 26,000  Level FlightAware ADS-B (KANK)
05:50PM 38.4990 -106.1920 249° West 398 458 26,000  Level FlightAware
05:51PM 38.4705 -106.2869 249° West 398 458 26,000  Level FlightAware ADS-B (KANK)
05:52PM 38.4394 -106.3890 249° West 398 458 26,000 960 Level FlightAware ADS-B (KANK)
05:53PM 38.3953 -106.5339 249° West 394 453 27,700 1,680 Climbing FlightAware ADS-B (KMTJ)
05:53PM 38.3714 -106.6122 249° West 390 449 28,900 1,620 Climbing FlightAware ADS-B (KMTJ)
05:54PM 38.3503 -106.6814 249° West 392 451 29,600 1,020 Climbing FlightAware ADS-B (KMTJ)
05:54PM 38.3305 -106.7458 249° West 396 456 30,000 780 Climbing FlightAware ADS-B (KMTJ)
05:55PM 38.3027 -106.8360 249° West 397 457 30,600 1,140 Climbing FlightAware ADS-B (KMTJ)
05:56PM 38.2820 -106.9028 249° West 397 457 31,400 1,320 Climbing FlightAware ADS-B (KMTJ)
05:56PM 38.2611 -106.9705 249° West 395 455 32,000 540 Climbing FlightAware ADS-B (KMTJ)
05:57PM 38.2406 -107.0369 249° West 395 455 32,000  Level FlightAware ADS-B (KMTJ)
05:57PM 38.2197 -107.1038 248° West 395 455 32,000  Level FlightAware ADS-B (KMTJ)
05:58PM 38.1996 -107.1681 248° West 398 458 32,000  Level FlightAware ADS-B (KMTJ)
05:58PM 38.1767 -107.2411 248° West 399 459 32,000  Level FlightAware ADS-B (KMTJ)
05:59PM 38.1565 -107.3053 248° West 399 459 32,000  Level FlightAware ADS-B (KMTJ)
05:59PM 38.1347 -107.3750 248° West 404 465 32,000  Level FlightAware ADS-B (KMTJ)
06:00PM 38.1141 -107.4408 248° West 407 468 32,000  Level FlightAware ADS-B (KMTJ)
06:00PM 38.0914 -107.5125 248° West 404 465 32,000  Level FlightAware ADS-B (KMTJ)
06:01PM 38.0706 -107.5782 248° West 402 463 32,000  Level FlightAware ADS-B (KMTJ)
06:01PM 38.0485 -107.6479 248° West 400 460 32,000  Level FlightAware ADS-B (KMTJ)
06:02PM 38.0276 -107.7136 248° West 401 461 32,000  Level FlightAware ADS-B (KMTJ)
06:02PM 38.0028 -107.7919 248° West 406 467 32,000  Level FlightAware ADS-B (KMTJ)
06:03PM 37.9819 -107.8571 248° West 404 465 32,000  Level FlightAware ADS-B (KMTJ)
06:03PM 37.9592 -107.9276 248° West 401 461 32,000  Level FlightAware ADS-B (KMTJ)
06:04PM 37.9382 -107.9930 248° West 399 459 32,000  Level FlightAware ADS-B (KMTJ)
06:05PM 37.9147 -108.0662 248° West 400 460 32,000  Level FlightAware ADS-B (KMTJ)
06:05PM 37.8952 -108.1272 248° West 406 467 32,000  Level FlightAware ADS-B (KMTJ)
06:06PM 37.8679 -108.2114 248° West 407 468 32,000  Level FlightAware ADS-B (KMTJ)
06:06PM 37.8463 -108.2775 248° West 405 466 32,000  Level FlightAware ADS-B (KMTJ)
06:07PM 37.8246 -108.3447 248° West 404 465 32,000  Level FlightAware ADS-B (KMTJ)
06:07PM 37.8030 -108.4110 248° West 402 463 32,000  Level FlightAware
06:07PM 37.7901 -108.4503 247° West 402 463 32,000  Level FlightAware ADS-B (KMTJ)
06:08PM 37.7659 -108.5242 248° West 403 464 32,000  Level FlightAware ADS-B (KMTJ)
06:09PM 37.7417 -108.5987 248° West 387 445 32,000  Level FlightAware ADS-B (KMTJ)
06:09PM 37.7210 -108.6617 247° West 387 445 32,000  Level FlightAware ADS-B (KMTJ)
06:10PM 37.6965 -108.7361 247° West 388 447 32,000  Level FlightAware ADS-B (KMTJ)
06:11PM 37.6623 -108.8394 247° West 390 449 32,000  Level FlightAware ADS-B (KMTJ)
06:11PM 37.6216 -108.9621 247° West 397 457 32,000  Level FlightAware ADS-B (KMTJ)
06:12PM 37.5962 -109.0380 247° West 401 461 32,000  Level FlightAware ADS-B (KMTJ)
06:13PM 37.5689 -109.1198 247° West 405 466 32,000  Level FlightAware ADS-B (KMTJ)
06:13PM 37.5441 -109.1936 247° West 408 470 32,000  Level FlightAware ADS-B (KMTJ)
06:14PM 37.5266 -109.2456 247° West 411 473 32,000  Level FlightAware ADS-B (KMTJ)
06:14PM 37.4971 -109.3331 247° West 413 475 32,000  Level FlightAware ADS-B (KMTJ)
06:15PM 37.4643 -109.4306 247° West 416 479 32,000  Level FlightAware ADS-B (KMTJ)
06:16PM 37.4426 -109.4951 247° West 417 480 32,000  Level FlightAware ADS-B (KMTJ)
06:16PM 37.4174 -109.5696 247° West 415 478 32,000  Level FlightAware ADS-B (KMTJ)
06:17PM 37.3680 -109.7160 247° West 413 475 32,000  Level FlightAware
06:18PM 37.3380 -109.8050 247° West 413 475 32,000  Level FlightAware
06:19PM 37.3000 -109.9170 247° West 413 475 32,000  Level FlightAware
06:20PM 37.2770 -109.9850 247° West 413 475 32,000  Level FlightAware
06:21PM 37.2400 -110.0940 247° West 413 475 32,000  Level FlightAware
06:22PM 37.2090 -110.1860 247° West 413 475 32,000  Level FlightAware
06:22PM 37.1860 -110.2550 247° West 413 475 32,000  Level FlightAware
06:23PM 37.1131 -110.4503 247° West 414 476 32,000  Level Los Angeles Center
06:28PM 36.8790 -111.1150 247° West 402 463 32,000  Level FlightAware
06:29PM 36.8380 -111.2290 246° West 406 467 32,000  Level FlightAware
06:30PM 36.8010 -111.3330 246° West 408 470 32,000  Level FlightAware
06:30PM 36.7630 -111.4400 246° West 413 475 32,000  Level FlightAware
06:31PM 36.7190 -111.5610 246° West 417 480 32,000  Level FlightAware
06:32PM 36.6990 -111.6140 245° Southwest 418 481 32,000  Level FlightAware
06:33PM 36.6500 -111.7250 241° Southwest 419 482 32,000  Level FlightAware
06:33PM 36.6070 -111.8230 241° Southwest 422 486 32,000  Level FlightAware
06:34PM 36.5540 -111.9460 242° Southwest 421 484 32,000  Level FlightAware
06:35PM 36.5120 -112.0410 241° Southwest 417 480 32,000  Level FlightAware
06:36PM 36.4530 -112.1750 241° Southwest 424 488 32,000  Level FlightAware
06:37PM 36.4020 -112.2900 241° Southwest 420 483 32,000  Level FlightAware
06:38PM 36.3530 -112.4010 241° Southwest 411 473 32,000  Level FlightAware
06:39PM 36.3200 -112.4750 241° Southwest 409 471 32,000  Level FlightAware
06:39PM 36.2760 -112.5730 241° Southwest 407 468 32,000  Level FlightAware
06:40PM 36.2240 -112.6890 241° Southwest 407 468 32,000  Level FlightAware
06:41PM 36.1680 -112.8140 241° Southwest 407 468 32,000  Level FlightAware
06:42PM 36.1280 -112.9030 241° Southwest 406 467 32,000  Level FlightAware
06:43PM 36.0960 -112.9740 241° Southwest 407 468 32,000  Level FlightAware
06:43PM 36.0510 -113.0740 241° Southwest 408 470 32,000  Level FlightAware
06:44PM 35.9990 -113.1880 241° Southwest 409 471 32,000  Level FlightAware
06:45PM 35.9580 -113.2790 241° Southwest 411 473 32,000  Level FlightAware
06:46PM 35.9090 -113.3840 240° Southwest 411 473 32,000  Level FlightAware
06:47PM 35.8660 -113.4780 241° Southwest 413 475 32,000  Level FlightAware
06:48PM 35.8170 -113.5850 241° Southwest 416 479 32,000  Level FlightAware
06:49PM 35.7640 -113.7010 241° Southwest 417 480 32,000  Level FlightAware
06:49PM 35.7180 -113.7990 240° Southwest 417 480 32,000  Level FlightAware
06:50PM 35.6670 -113.9100 241° Southwest 420 483 32,000  Level FlightAware
06:51PM 35.6140 -114.0230 240° Southwest 421 484 32,000  Level FlightAware
06:52PM 35.5850 -114.0850 240° Southwest 421 484 32,000  Level FlightAware
06:53PM 35.5320 -114.1980 240° Southwest 421 484 32,000  Level FlightAware
06:53PM 35.4910 -114.2860 240° Southwest 418 481 32,000  Level FlightAware
06:54PM 35.4470 -114.3800 240° Southwest 415 478 32,000  Level FlightAware
06:55PM 35.4160 -114.4450 240° Southwest 400 460 32,000  Level FlightAware
06:55PM 35.3670 -114.5490 240° Southwest 396 456 32,000  Level FlightAware
06:56PM 35.3490 -114.5870 240° Southwest 395 455 32,000  Level FlightAware
06:57PM 35.2930 -114.7040 240° Southwest 392 451 32,000  Level FlightAware
06:58PM 35.2450 -114.8050 240° Southwest 390 449 32,000  Level FlightAware
06:59PM 35.1980 -114.9030 240° Southwest 392 451 32,000  Level FlightAware
06:59PM 35.1720 -114.9580 240° Southwest 392 451 32,000 -720 Level FlightAware
07:00PM 35.1250 -115.0550 239° Southwest 386 444 31,100 -1,500 Descending FlightAware
07:00PM 35.1040 -115.1000 240° Southwest 380 437 30,100 -2,580 Descending FlightAware
07:01PM 35.0530 -115.2040 239° Southwest 374 430 27,700 -1,680 Descending FlightAware
07:02PM 35.0050 -115.3050 240° Southwest 369 425 27,000 -540 Descending FlightAware
07:03PM 34.9820 -115.3510 239° Southwest 370 426 27,000  Level FlightAware
07:03PM 34.9530 -115.4110 239° Southwest 371 427 27,000  Level FlightAware
07:04PM 34.9220 -115.4760 240° Southwest 374 430 27,000  Level FlightAware
07:05PM 34.8730 -115.5750 239° Southwest 375 432 27,000  Level FlightAware
07:06PM 34.8240 -115.6770 240° Southwest 375 432 27,000  Level FlightAware
07:06PM 34.7990 -115.7270 239° Southwest 376 433 27,000  Level FlightAware
07:07PM 34.7500 -115.8260 239° Southwest 379 436 27,000  Level FlightAware
07:07PM 34.7230 -115.8810 239° Southwest 389 448 27,000  Level FlightAware
07:08PM 34.6690 -115.9900 239° Southwest 406 467 27,000  Level FlightAware
07:09PM 34.6460 -116.0370 239° Southwest 406 467 27,000  Level FlightAware
07:10PM 34.5750 -116.1810 239° Southwest 409 471 27,000  Level FlightAware
07:11PM 34.5310 -116.2690 239° Southwest 409 471 27,000  Level FlightAware
07:11PM 34.4960 -116.3400 239° Southwest 408 470 27,000  Level FlightAware
07:12PM 34.4630 -116.4050 238° Southwest 410 472 27,000  Level FlightAware
07:13PM 34.4070 -116.5170 239° Southwest 410 472 27,000  Level FlightAware
07:14PM 34.3683 -116.5949 239° Southwest 409 471 27,000 -840 Level FlightAware ADS-B
07:14PM 34.3372 -116.6565 239° Southwest 405 466 26,100 -2,280 Descending FlightAware ADS-B
07:15PM 34.2991 -116.7321 239° Southwest 399 459 24,300 -2,940 Descending FlightAware ADS-B
07:15PM 34.2619 -116.8062 239° Southwest 398 458 22,300 -3,000 Descending FlightAware ADS-B
07:16PM 34.2322 -116.8645 238° Southwest 396 456 20,800 -2,700 Descending FlightAware ADS-B
07:17PM 34.1988 -116.9305 239° Southwest 386 444 19,200 -1,440 Descending FlightAware ADS-B
07:17PM 34.1605 -117.0061 239° Southwest 360 414 19,000 -180 Descending FlightAware ADS-B
07:18PM 34.1320 -117.0622 239° Southwest 357 411 19,000 -360 Level FlightAware ADS-B
07:18PM 34.1029 -117.1206 239° Southwest 354 407 18,600 -1,140 Descending FlightAware ADS-B
07:19PM 34.0688 -117.1964 242° Southwest 339 390 17,500 -1,560 Descending FlightAware ADS-B
07:20PM 34.0440 -117.2891 252° West 318 366 16,100 -1,560 Descending FlightAware ADS-B
07:21PM 34.0372 -117.3636 264° West 323 372 15,000 -1,560 Descending FlightAware ADS-B
07:22PM 34.0289 -117.4517 264° West 322 371 13,600 -1,560 Descending FlightAware ADS-B
07:22PM 34.0210 -117.5320 263° West 310 357 12,600 -1,560 Descending FlightAware
07:23PM 34.0120 -117.6270 264° West 302 348 11,200 -1,500 Descending FlightAware
07:24PM 34.0050 -117.7060 264° West 295 339 10,000 -1,500 Descending FlightAware
07:24PM 34.0000 -117.7480 262° West 290 334 9,400 -1,380 Descending FlightAware
07:25PM 33.9950 -117.8030 264° West 282 325 8,600 -1,320 Descending FlightAware
07:25PM 33.9900 -117.8490 263° West 278 320 8,000 -1,380 Descending FlightAware
07:26PM 33.9860 -117.8930 264° West 275 316 7,300 -1,020 Descending FlightAware
07:26PM 33.9820 -117.9380 264° West 258 297 7,000 -780 Descending FlightAware
07:27PM 33.9780 -117.9810 264° West 235 270 6,500 -1,140 Descending FlightAware
07:27PM 33.9750 -118.0090 263° West 232 267 6,000 -1,080 Descending FlightAware
07:28PM 33.9710 -118.0460 263° West 213 245 5,600 -840 Descending FlightAware
07:28PM 33.9680 -118.0730 262° West 197 227 5,300 -900 Descending FlightAware
07:29PM 33.9660 -118.0990 265° West 192 221 4,900 -1,020 Descending FlightAware
07:29PM 33.9640 -118.1230 264° West 188 216 4,500 -960 Descending FlightAware
07:29PM 33.9610 -118.1450 261° West 185 213 4,200 -960 Descending FlightAware
07:30PM 33.9590 -118.1740 265° West 183 211 3,700 -1,020 Descending FlightAware
07:30PM 33.9560 -118.1990 262° West 182 209 3,300 -1,020 Descending FlightAware
07:31PM 33.9520 -118.2400 263° West 181 208 2,600 -960 Descending FlightAware
07:31PM 33.9490 -118.2690 263° West 180 207 2,200 -960 Descending FlightAware
07:32PM 33.9470 -118.2910 264° West 169 194 1,800 -900 Descending FlightAware
07:32PM 33.9450 -118.3090 262° West 150 173 1,500 -780 Descending FlightAware
07:33PM 33.9420 -118.3330 261° West 143 165 1,100 -840 Descending FlightAware
07:33PM 33.9400 -118.3520 263° West 142 163 800 -420 Descending FlightAware
07:34PM 33.9390 -118.3680 266° West 142 163 800  Level FlightAware